This is the latest recevied weather packets stored in our database for station/object IU4KCH-20. If no packets are shown the sender has not sent any weather packets the latest 10 day(s).
| Time | Temp. | Humidity | Pressure | Rain* | Wind** | Luminosity | Snow |
|---|---|---|---|---|---|---|---|
| 1777879840 | 18.89° C | 44% | 1014.8 hPa | - | - | - | - |
| 1777878939 | 18.89° C | 44% | 1014.9 hPa | - | - | - | - |
| 1777878038 | 18.89° C | 41% | 1014.8 hPa | - | - | - | - |
| 1777877136 | 18.33° C | 44% | 1014.7 hPa | - | - | - | - |
| 1777876235 | 19.44° C | 41% | 1014.6 hPa | - | - | - | - |
| 1777875334 | 19.44° C | 40% | 1014.6 hPa | - | - | - | - |
| 1777874434 | 18.33° C | 46% | 1014.5 hPa | - | - | - | - |
| 1777871731 | 17.78° C | 43% | 1014.3 hPa | - | - | - | - |
| 1777869983 | 17.78° C | 43% | 1014 hPa | - | - | - | - |
| 1777869929 | 17.78° C | 43% | 1014 hPa | - | - | - | - |
| 1777869029 | 17.78° C | 41% | 1013.9 hPa | - | - | - | - |
| 1777868128 | 17.78° C | 41% | 1013.9 hPa | - | - | - | - |
| 1777867227 | 17.78° C | 41% | 1013.9 hPa | - | - | - | - |
| 1777866326 | 17.78° C | 41% | 1013.7 hPa | - | - | - | - |
| 1777865425 | 18.33° C | 40% | 1013.8 hPa | - | - | - | - |
| 1777864524 | 17.78° C | 40% | 1013.8 hPa | - | - | - | - |
| 1777863624 | 18.33° C | 39% | 1013.8 hPa | - | - | - | - |
| 1777862723 | 18.33° C | 39% | 1013.9 hPa | - | - | - | - |
| 1777861822 | 18.33° C | 40% | 1014 hPa | - | - | - | - |
| 1777860921 | 18.33° C | 40% | 1014 hPa | - | - | - | - |
| 1777860020 | 18.89° C | 41% | 1013.9 hPa | - | - | - | - |
| 1777859120 | 19.44° C | 39% | 1013.9 hPa | - | - | - | - |
| 1777858219 | 19.44° C | 40% | 1013.9 hPa | - | - | - | - |
| 1777856417 | 19.44° C | 40% | 1013.9 hPa | - | - | - | - |
| 1777855516 | 19.44° C | 40% | 1014 hPa | - | - | - | - |
* Rain since midnight (hover to see other rain measurements)
** Current wind speed in m/s (hover to see current wind gust speed)